sensor_id;sensor_type;location;lat;lon;timestamp;pressure;altitude;pressure_sealevel;temperature;humidity
69223;BME280;56514;51.816;-0.026;2023-04-19T00:02:52;61109.75;;;-140.45;100.00
69223;BME280;56514;51.816;-0.026;2023-04-19T00:06:02;61109.75;;;-140.45;100.00
69223;BME280;56514;51.816;-0.026;2023-04-19T00:09:12;61109.75;;;-140.45;100.00
69223;BME280;56514;51.816;-0.026;2023-04-19T00:12:21;61109.75;;;-140.45;100.00
69223;BME280;56514;51.816;-0.026;2023-04-19T00:15:31;61109.75;;;-140.45;100.00
69223;BME280;56514;51.816;-0.026;2023-04-19T00:18:42;61109.75;;;-140.45;100.00
69223;BME280;56514;51.816;-0.026;2023-04-19T00:21:51;61109.75;;;-140.45;100.00
69223;BME280;56514;51.816;-0.026;2023-04-19T00:25:00;61109.75;;;-140.45;100.00
69223;BME280;56514;51.816;-0.026;2023-04-19T00:27:46;61109.75;;;-140.45;100.00
69223;BME280;56514;51.816;-0.026;2023-04-19T00:30:30;61109.75;;;-140.45;100.00
69223;BME280;56514;51.816;-0.026;2023-04-19T00:33:15;61109.75;;;-140.45;100.00
69223;BME280;56514;51.816;-0.026;2023-04-19T00:36:01;61109.75;;;-140.45;100.00
69223;BME280;56514;51.816;-0.026;2023-04-19T00:39:10;61109.75;;;-140.45;100.00
69223;BME280;56514;51.816;-0.026;2023-04-19T00:41:55;61109.75;;;-140.45;100.00
69223;BME280;56514;51.816;-0.026;2023-04-19T00:44:43;61109.75;;;-140.45;100.00
69223;BME280;56514;51.816;-0.026;2023-04-19T00:47:29;61109.75;;;-140.45;100.00
69223;BME280;56514;51.816;-0.026;2023-04-19T00:50:14;61109.75;;;-140.45;100.00
69223;BME280;56514;51.816;-0.026;2023-04-19T00:52:59;61109.75;;;-140.45;100.00
69223;BME280;56514;51.816;-0.026;2023-04-19T00:55:44;61109.75;;;-140.45;100.00
69223;BME280;56514;51.816;-0.026;2023-04-19T00:58:30;61109.75;;;-140.45;100.00
69223;BME280;56514;51.816;-0.026;2023-04-19T01:01:15;61109.75;;;-140.45;100.00
69223;BME280;56514;51.816;-0.026;2023-04-19T01:04:00;61109.75;;;-140.45;100.00
69223;BME280;56514;51.816;-0.026;2023-04-19T01:06:50;61109.75;;;-140.45;100.00
69223;BME280;56514;51.816;-0.026;2023-04-19T01:09:39;61109.75;;;-140.45;100.00
69223;BME280;56514;51.816;-0.026;2023-04-19T01:12:25;61109.75;;;-140.45;100.00
69223;BME280;56514;51.816;-0.026;2023-04-19T01:15:10;61109.75;;;-140.45;100.00
69223;BME280;56514;51.816;-0.026;2023-04-19T01:17:55;61109.75;;;-140.45;100.00
69223;BME280;56514;51.816;-0.026;2023-04-19T01:20:40;61109.75;;;-140.45;100.00
69223;BME280;56514;51.816;-0.026;2023-04-19T01:23:25;61109.75;;;-140.45;100.00
69223;BME280;56514;51.816;-0.026;2023-04-19T01:26:10;61109.75;;;-140.45;100.00
69223;BME280;56514;51.816;-0.026;2023-04-19T01:29:18;61109.75;;;-140.45;100.00
69223;BME280;56514;51.816;-0.026;2023-04-19T01:32:24;61109.75;;;-140.45;100.00
69223;BME280;56514;51.816;-0.026;2023-04-19T01:35:35;61109.75;;;-140.45;100.00
69223;BME280;56514;51.816;-0.026;2023-04-19T01:38:44;61109.75;;;-140.45;100.00
69223;BME280;56514;51.816;-0.026;2023-04-19T01:41:31;61109.75;;;-140.45;100.00
69223;BME280;56514;51.816;-0.026;2023-04-19T01:44:16;61109.75;;;-140.45;100.00
69223;BME280;56514;51.816;-0.026;2023-04-19T01:47:00;61109.75;;;-140.45;100.00
69223;BME280;56514;51.816;-0.026;2023-04-19T01:49:45;61109.75;;;-140.45;100.00
69223;BME280;56514;51.816;-0.026;2023-04-19T01:52:30;61109.75;;;-140.45;100.00
69223;BME280;56514;51.816;-0.026;2023-04-19T01:55:14;61109.75;;;-140.45;100.00
69223;BME280;56514;51.816;-0.026;2023-04-19T01:58:00;61109.75;;;-140.45;100.00
69223;BME280;56514;51.816;-0.026;2023-04-19T02:00:44;61109.75;;;-140.45;100.00
69223;BME280;56514;51.816;-0.026;2023-04-19T02:03:29;61109.75;;;-140.45;100.00
69223;BME280;56514;51.816;-0.026;2023-04-19T02:06:15;61109.75;;;-140.45;100.00
69223;BME280;56514;51.816;-0.026;2023-04-19T02:09:00;61109.75;;;-140.45;100.00
69223;BME280;56514;51.816;-0.026;2023-04-19T02:11:44;61109.75;;;-140.45;100.00
69223;BME280;56514;51.816;-0.026;2023-04-19T02:14:29;61109.75;;;-140.45;100.00
69223;BME280;56514;51.816;-0.026;2023-04-19T02:17:14;61109.75;;;-140.45;100.00
69223;BME280;56514;51.816;-0.026;2023-04-19T02:19:59;61109.75;;;-140.45;100.00
69223;BME280;56514;51.816;-0.026;2023-04-19T02:22:44;61109.75;;;-140.45;100.00
69223;BME280;56514;51.816;-0.026;2023-04-19T02:25:29;61109.75;;;-140.45;100.00
69223;BME280;56514;51.816;-0.026;2023-04-19T02:28:14;61109.75;;;-140.45;100.00
69223;BME280;56514;51.816;-0.026;2023-04-19T02:31:03;61109.75;;;-140.45;100.00
69223;BME280;56514;51.816;-0.026;2023-04-19T02:33:49;61109.75;;;-140.45;100.00
69223;BME280;56514;51.816;-0.026;2023-04-19T02:36:34;61109.75;;;-140.45;100.00
69223;BME280;56514;51.816;-0.026;2023-04-19T02:39:19;61109.75;;;-140.45;100.00
69223;BME280;56514;51.816;-0.026;2023-04-19T02:42:28;61109.75;;;-140.45;100.00
69223;BME280;56514;51.816;-0.026;2023-04-19T02:45:17;61109.75;;;-140.45;100.00
69223;BME280;56514;51.816;-0.026;2023-04-19T02:48:01;61109.75;;;-140.45;100.00
69223;BME280;56514;51.816;-0.026;2023-04-19T02:50:46;61109.75;;;-140.45;100.00
69223;BME280;56514;51.816;-0.026;2023-04-19T02:53:32;61109.75;;;-140.45;100.00
69223;BME280;56514;51.816;-0.026;2023-04-19T02:56:17;61109.75;;;-140.45;100.00
69223;BME280;56514;51.816;-0.026;2023-04-19T02:59:03;61109.75;;;-140.45;100.00
69223;BME280;56514;51.816;-0.026;2023-04-19T03:01:48;61109.75;;;-140.45;100.00
69223;BME280;56514;51.816;-0.026;2023-04-19T03:04:33;61109.75;;;-140.45;100.00
69223;BME280;56514;51.816;-0.026;2023-04-19T03:07:18;61109.75;;;-140.45;100.00
69223;BME280;56514;51.816;-0.026;2023-04-19T03:10:03;61109.75;;;-140.45;100.00
69223;BME280;56514;51.816;-0.026;2023-04-19T03:12:48;61109.75;;;-140.45;100.00
69223;BME280;56514;51.816;-0.026;2023-04-19T03:15:33;61109.75;;;-140.45;100.00
69223;BME280;56514;51.816;-0.026;2023-04-19T03:18:18;61109.75;;;-140.45;100.00
69223;BME280;56514;51.816;-0.026;2023-04-19T03:21:03;61109.75;;;-140.45;100.00
69223;BME280;56514;51.816;-0.026;2023-04-19T03:23:48;61109.75;;;-140.45;100.00
69223;BME280;56514;51.816;-0.026;2023-04-19T03:26:33;61109.75;;;-140.45;100.00
69223;BME280;56514;51.816;-0.026;2023-04-19T03:29:18;61109.75;;;-140.45;100.00
69223;BME280;56514;51.816;-0.026;2023-04-19T03:32:03;61109.75;;;-140.45;100.00
69223;BME280;56514;51.816;-0.026;2023-04-19T03:34:47;61109.75;;;-140.45;100.00
69223;BME280;56514;51.816;-0.026;2023-04-19T03:37:32;61109.75;;;-140.45;100.00
69223;BME280;56514;51.816;-0.026;2023-04-19T03:40:17;61109.75;;;-140.45;100.00
69223;BME280;56514;51.816;-0.026;2023-04-19T03:43:03;61109.75;;;-140.45;100.00
69223;BME280;56514;51.816;-0.026;2023-04-19T03:46:12;61109.75;;;-140.45;100.00
69223;BME280;56514;51.816;-0.026;2023-04-19T03:49:21;61109.75;;;-140.45;100.00
69223;BME280;56514;51.816;-0.026;2023-04-19T03:52:30;61109.75;;;-140.45;100.00
69223;BME280;56514;51.816;-0.026;2023-04-19T03:55:39;61109.75;;;-140.45;100.00
69223;BME280;56514;51.816;-0.026;2023-04-19T03:58:50;61109.75;;;-140.45;100.00
69223;BME280;56514;51.816;-0.026;2023-04-19T04:01:59;61109.75;;;-140.45;100.00
69223;BME280;56514;51.816;-0.026;2023-04-19T04:05:08;61109.75;;;-140.45;100.00
69223;BME280;56514;51.816;-0.026;2023-04-19T04:08:17;61109.75;;;-140.45;100.00
69223;BME280;56514;51.816;-0.026;2023-04-19T04:11:26;61109.75;;;-140.45;100.00
69223;BME280;56514;51.816;-0.026;2023-04-19T04:14:35;61109.75;;;-140.45;100.00
69223;BME280;56514;51.816;-0.026;2023-04-19T04:17:44;61109.75;;;-140.45;100.00
69223;BME280;56514;51.816;-0.026;2023-04-19T04:20:53;61109.75;;;-140.45;100.00
69223;BME280;56514;51.816;-0.026;2023-04-19T04:24:03;61109.75;;;-140.45;100.00
69223;BME280;56514;51.816;-0.026;2023-04-19T04:26:49;61109.75;;;-140.45;100.00
69223;BME280;56514;51.816;-0.026;2023-04-19T04:29:36;61109.75;;;-140.45;100.00
69223;BME280;56514;51.816;-0.026;2023-04-19T04:32:24;61109.75;;;-140.45;100.00
69223;BME280;56514;51.816;-0.026;2023-04-19T04:35:10;61109.75;;;-140.45;100.00
69223;BME280;56514;51.816;-0.026;2023-04-19T04:37:55;61109.75;;;-140.45;100.00
69223;BME280;56514;51.816;-0.026;2023-04-19T04:40:40;61109.75;;;-140.45;100.00
69223;BME280;56514;51.816;-0.026;2023-04-19T04:44:10;101996.38;;;8.55;71.13
69223;BME280;56514;51.816;-0.026;2023-04-19T04:46:56;101998.34;;;8.50;71.74
69223;BME280;56514;51.816;-0.026;2023-04-19T04:49:40;101997.53;;;8.48;71.71
69223;BME280;56514;51.816;-0.026;2023-04-19T04:52:25;101989.63;;;8.48;71.79
69223;BME280;56514;51.816;-0.026;2023-04-19T04:55:10;101998.34;;;8.50;71.69
69223;BME280;56514;51.816;-0.026;2023-04-19T04:57:55;101988.72;;;8.49;71.47
69223;BME280;56514;51.816;-0.026;2023-04-19T05:00:40;101985.19;;;8.50;71.53
69223;BME280;56514;51.816;-0.026;2023-04-19T05:03:25;101986.03;;;8.50;71.38
69223;BME280;56514;51.816;-0.026;2023-04-19T05:06:11;101984.31;;;8.49;71.96
69223;BME280;56514;51.816;-0.026;2023-04-19T05:08:55;101976.31;;;8.52;71.89
69223;BME280;56514;51.816;-0.026;2023-04-19T05:11:40;101986.66;;;8.57;71.86
69223;BME280;56514;51.816;-0.026;2023-04-19T05:14:25;101987.41;;;8.60;71.95
69223;BME280;56514;51.816;-0.026;2023-04-19T05:17:10;101990.69;;;8.65;71.87
69223;BME280;56514;51.816;-0.026;2023-04-19T05:19:55;101995.81;;;8.68;71.83
69223;BME280;56514;51.816;-0.026;2023-04-19T05:22:40;101996.56;;;8.72;71.82
69223;BME280;56514;51.816;-0.026;2023-04-19T05:25:25;102006.00;;;8.77;71.50
69223;BME280;56514;51.816;-0.026;2023-04-19T05:28:35;102005.75;;;8.83;71.39
69223;BME280;56514;51.816;-0.026;2023-04-19T05:31:43;102015.22;;;8.87;71.38
69223;BME280;56514;51.816;-0.026;2023-04-19T05:34:49;102003.63;;;8.91;71.58
69223;BME280;56514;51.816;-0.026;2023-04-19T05:37:59;102007.88;;;8.96;71.04
69223;BME280;56514;51.816;-0.026;2023-04-19T05:41:08;102007.69;;;9.00;71.04
69223;BME280;56514;51.816;-0.026;2023-04-19T05:44:16;102005.78;;;9.04;71.23
69223;BME280;56514;51.816;-0.026;2023-04-19T05:47:26;102007.31;;;9.09;71.02
69223;BME280;56514;51.816;-0.026;2023-04-19T05:50:35;102007.97;;;9.14;70.72
69223;BME280;56514;51.816;-0.026;2023-04-19T05:53:45;102017.25;;;9.23;70.83
69223;BME280;56514;51.816;-0.026;2023-04-19T05:56:53;102013.50;;;9.28;70.76
69223;BME280;56514;51.816;-0.026;2023-04-19T06:00:03;102015.81;;;9.36;70.61
69223;BME280;56514;51.816;-0.026;2023-04-19T06:03:13;102018.13;;;9.43;70.44
69223;BME280;56514;51.816;-0.026;2023-04-19T06:06:22;102023.03;;;9.52;70.36
69223;BME280;56514;51.816;-0.026;2023-04-19T06:09:32;102022.69;;;9.60;70.21
69223;BME280;56514;51.816;-0.026;2023-04-19T06:12:41;102024.94;;;9.69;70.30
69223;BME280;56514;51.816;-0.026;2023-04-19T06:15:26;102024.66;;;9.75;70.11
69223;BME280;56514;51.816;-0.026;2023-04-19T06:18:11;102024.31;;;9.82;70.25
69223;BME280;56514;51.816;-0.026;2023-04-19T06:20:55;102023.97;;;9.90;70.26
69223;BME280;56514;51.816;-0.026;2023-04-19T06:23:44;102025.25;;;10.00;70.48
69223;BME280;56514;51.816;-0.026;2023-04-19T06:26:29;102019.59;;;10.09;69.68
69223;BME280;56514;51.816;-0.026;2023-04-19T06:29:15;102014.91;;;10.15;70.15
69223;BME280;56514;51.816;-0.026;2023-04-19T06:31:59;102021.44;;;10.27;69.58
69223;BME280;56514;51.816;-0.026;2023-04-19T06:34:45;102019.28;;;10.35;69.54
69223;BME280;56514;51.816;-0.026;2023-04-19T06:37:29;102023.28;;;10.43;69.25
69223;BME280;56514;51.816;-0.026;2023-04-19T06:40:14;102025.41;;;10.54;69.61
69223;BME280;56514;51.816;-0.026;2023-04-19T06:42:58;102027.63;;;10.63;69.40
69223;BME280;56514;51.816;-0.026;2023-04-19T06:45:44;102032.47;;;10.72;69.04
69223;BME280;56514;51.816;-0.026;2023-04-19T06:48:29;102027.59;;;10.82;68.96
69223;BME280;56514;51.816;-0.026;2023-04-19T06:51:14;102032.34;;;10.92;68.98
69223;BME280;56514;51.816;-0.026;2023-04-19T06:53:59;102028.25;;;11.04;68.92
69223;BME280;56514;51.816;-0.026;2023-04-19T06:56:48;102036.56;;;11.13;68.78
69223;BME280;56514;51.816;-0.026;2023-04-19T06:59:33;102024.91;;;11.17;68.60
69223;BME280;56514;51.816;-0.026;2023-04-19T07:02:19;102038.63;;;11.25;68.41
69223;BME280;56514;51.816;-0.026;2023-04-19T07:05:04;102027.81;;;11.30;68.50
69223;BME280;56514;51.816;-0.026;2023-04-19T07:07:49;102035.28;;;11.39;68.43
69223;BME280;56514;51.816;-0.026;2023-04-19T07:10:34;102036.63;;;11.47;68.03
69223;BME280;56514;51.816;-0.026;2023-04-19T07:13:19;102041.44;;;11.56;68.32
69223;BME280;56514;51.816;-0.026;2023-04-19T07:16:23;102036.38;;;11.69;67.92
69223;BME280;56514;51.816;-0.026;2023-04-19T07:19:28;102041.09;;;11.79;67.80
69223;BME280;56514;51.816;-0.026;2023-04-19T07:22:33;102042.19;;;11.92;67.30
69223;BME280;56514;51.816;-0.026;2023-04-19T07:25:39;102040.00;;;12.00;67.08
69223;BME280;56514;51.816;-0.026;2023-04-19T07:28:43;102034.38;;;12.06;67.10
69223;BME280;56514;51.816;-0.026;2023-04-19T07:31:52;102038.25;;;12.16;66.92
69223;BME280;56514;51.816;-0.026;2023-04-19T07:35:03;102035.19;;;12.24;66.89
69223;BME280;56514;51.816;-0.026;2023-04-19T07:38:13;102042.53;;;12.34;66.52
69223;BME280;56514;51.816;-0.026;2023-04-19T07:41:22;102044.75;;;12.42;66.16
69223;BME280;56514;51.816;-0.026;2023-04-19T07:44:32;102046.56;;;12.57;66.40
69223;BME280;56514;51.816;-0.026;2023-04-19T07:47:41;102049.22;;;12.73;66.10
69223;BME280;56514;51.816;-0.026;2023-04-19T07:50:50;102046.22;;;12.94;65.78
69223;BME280;56514;51.816;-0.026;2023-04-19T07:53:59;102051.25;;;12.99;65.59
69223;BME280;56514;51.816;-0.026;2023-04-19T07:57:08;102043.84;;;13.21;65.68
69223;BME280;56514;51.816;-0.026;2023-04-19T08:00:18;102045.00;;;13.74;65.09
69223;BME280;56514;51.816;-0.026;2023-04-19T08:03:29;102047.53;;;14.20;63.67
69223;BME280;56514;51.816;-0.026;2023-04-19T08:06:40;102045.63;;;14.50;62.70
69223;BME280;56514;51.816;-0.026;2023-04-19T08:09:50;102045.31;;;14.68;61.62
69223;BME280;56514;51.816;-0.026;2023-04-19T08:13:00;102044.94;;;14.74;61.05
69223;BME280;56514;51.816;-0.026;2023-04-19T08:16:09;102050.81;;;14.79;60.58
69223;BME280;56514;51.816;-0.026;2023-04-19T08:18:56;102051.72;;;14.92;60.72
69223;BME280;56514;51.816;-0.026;2023-04-19T08:21:40;102053.75;;;15.01;59.92
69223;BME280;56514;51.816;-0.026;2023-04-19T08:24:25;102053.81;;;15.14;60.02
69223;BME280;56514;51.816;-0.026;2023-04-19T08:27:11;102056.16;;;15.18;59.22
69223;BME280;56514;51.816;-0.026;2023-04-19T08:29:56;102054.50;;;15.30;59.25
69223;BME280;56514;51.816;-0.026;2023-04-19T08:32:40;102053.06;;;15.38;58.80
69223;BME280;56514;51.816;-0.026;2023-04-19T08:35:25;102050.75;;;15.46;58.70
69223;BME280;56514;51.816;-0.026;2023-04-19T08:38:10;102055.78;;;15.63;58.25
69223;BME280;56514;51.816;-0.026;2023-04-19T08:40:57;102055.69;;;15.77;58.12
69223;BME280;56514;51.816;-0.026;2023-04-19T08:43:43;102059.13;;;15.92;57.90
69223;BME280;56514;51.816;-0.026;2023-04-19T08:46:29;102063.06;;;16.12;57.54
69223;BME280;56514;51.816;-0.026;2023-04-19T08:49:15;102065.09;;;16.21;57.10
69223;BME280;56514;51.816;-0.026;2023-04-19T08:52:06;102070.63;;;16.18;56.75
69223;BME280;56514;51.816;-0.026;2023-04-19T08:54:56;102069.53;;;16.20;56.79
69223;BME280;56514;51.816;-0.026;2023-04-19T08:57:41;102067.53;;;16.24;56.08
69223;BME280;56514;51.816;-0.026;2023-04-19T09:00:26;102058.69;;;16.23;56.34
69223;BME280;56514;51.816;-0.026;2023-04-19T09:03:11;102065.19;;;16.32;56.41
69223;BME280;56514;51.816;-0.026;2023-04-19T09:05:56;102066.03;;;16.45;56.07
69223;BME280;56514;51.816;-0.026;2023-04-19T09:08:41;102071.69;;;16.53;56.32
69223;BME280;56514;51.816;-0.026;2023-04-19T09:11:36;102071.47;;;16.56;55.96
69223;BME280;56514;51.816;-0.026;2023-04-19T09:14:25;102068.03;;;16.54;55.69
69223;BME280;56514;51.816;-0.026;2023-04-19T09:17:12;102065.25;;;16.43;55.41
69223;BME280;56514;51.816;-0.026;2023-04-19T09:20:35;102055.03;;;16.37;55.82
69223;BME280;56514;51.816;-0.026;2023-04-19T09:23:46;102055.38;;;16.45;55.61
69223;BME280;56514;51.816;-0.026;2023-04-19T09:26:55;102054.16;;;16.61;55.40
69223;BME280;56514;51.816;-0.026;2023-04-19T09:30:02;102057.59;;;16.63;54.99
69223;BME280;56514;51.816;-0.026;2023-04-19T09:33:10;102050.47;;;16.64;55.00
69223;BME280;56514;51.816;-0.026;2023-04-19T09:36:28;102054.22;;;16.85;54.53
69223;BME280;56514;51.816;-0.026;2023-04-19T09:39:37;102057.69;;;16.98;54.10
69223;BME280;56514;51.816;-0.026;2023-04-19T09:42:46;102054.91;;;17.23;54.34
69223;BME280;56514;51.816;-0.026;2023-04-19T09:45:55;102054.00;;;17.70;53.07
69223;BME280;56514;51.816;-0.026;2023-04-19T09:52:24;102057.75;;;18.68;51.89
69223;BME280;56514;51.816;-0.026;2023-04-19T09:55:36;102050.72;;;19.09;50.41
69223;BME280;56514;51.816;-0.026;2023-04-19T09:58:46;102057.47;;;19.24;49.78
69223;BME280;56514;51.816;-0.026;2023-04-19T10:01:57;102042.91;;;19.49;48.38
69223;BME280;56514;51.816;-0.026;2023-04-19T10:05:10;102055.22;;;19.72;48.39
69223;BME280;56514;51.816;-0.026;2023-04-19T10:08:20;102040.91;;;19.83;48.15
69223;BME280;56514;51.816;-0.026;2023-04-19T10:11:34;102042.53;;;19.95;47.67
69223;BME280;56514;51.816;-0.026;2023-04-19T10:15:00;102034.28;;;20.07;47.46
69223;BME280;56514;51.816;-0.026;2023-04-19T10:18:10;102031.09;;;20.13;46.47
69223;BME280;56514;51.816;-0.026;2023-04-19T10:21:05;102036.56;;;20.12;46.29
69223;BME280;56514;51.816;-0.026;2023-04-19T10:23:53;102034.56;;;20.25;46.64
69223;BME280;56514;51.816;-0.026;2023-04-19T10:29:58;102034.09;;;19.99;45.66
69223;BME280;56514;51.816;-0.026;2023-04-19T10:32:46;102037.84;;;19.67;46.24
69223;BME280;56514;51.816;-0.026;2023-04-19T10:35:36;102026.16;;;19.47;46.64
69223;BME280;56514;51.816;-0.026;2023-04-19T10:38:38;102018.66;;;19.41;47.00
69223;BME280;56514;51.816;-0.026;2023-04-19T10:42:16;102028.56;;;19.71;47.00
69223;BME280;56514;51.816;-0.026;2023-04-19T10:45:34;102018.00;;;19.99;46.17
69223;BME280;56514;51.816;-0.026;2023-04-19T10:51:18;102010.38;;;20.15;45.94
69223;BME280;56514;51.816;-0.026;2023-04-19T10:54:05;102007.72;;;20.15;45.50
69223;BME280;56514;51.816;-0.026;2023-04-19T10:59:43;102007.94;;;19.62;45.58
69223;BME280;56514;51.816;-0.026;2023-04-19T11:02:29;101994.31;;;19.44;46.03
69223;BME280;56514;51.816;-0.026;2023-04-19T11:05:16;102003.56;;;19.61;45.95
69223;BME280;56514;51.816;-0.026;2023-04-19T11:08:03;101996.97;;;19.65;45.63
69223;BME280;56514;51.816;-0.026;2023-04-19T11:10:48;102000.91;;;19.61;45.56
69223;BME280;56514;51.816;-0.026;2023-04-19T11:13:35;101999.44;;;19.57;45.67
69223;BME280;56514;51.816;-0.026;2023-04-19T11:16:40;101996.97;;;19.65;45.92
69223;BME280;56514;51.816;-0.026;2023-04-19T11:19:58;101993.22;;;19.97;45.46
69223;BME280;56514;51.816;-0.026;2023-04-19T11:23:14;101995.31;;;20.24;44.96
69223;BME280;56514;51.816;-0.026;2023-04-19T11:26:22;101992.09;;;20.30;44.46
69223;BME280;56514;51.816;-0.026;2023-04-19T11:29:28;101987.91;;;20.37;44.31
69223;BME280;56514;51.816;-0.026;2023-04-19T11:32:48;101977.34;;;20.54;44.06
69223;BME280;56514;51.816;-0.026;2023-04-19T11:35:53;101983.81;;;21.01;43.38
69223;BME280;56514;51.816;-0.026;2023-04-19T11:39:05;101967.72;;;21.01;42.70
69223;BME280;56514;51.816;-0.026;2023-04-19T11:42:20;101971.09;;;21.22;42.15
69223;BME280;56514;51.816;-0.026;2023-04-19T11:45:31;101967.94;;;21.55;41.77
69223;BME280;56514;51.816;-0.026;2023-04-19T11:48:51;101973.31;;;21.55;41.12
69223;BME280;56514;51.816;-0.026;2023-04-19T11:52:04;101964.88;;;21.41;41.04
69223;BME280;56514;51.816;-0.026;2023-04-19T11:55:17;101960.31;;;21.32;40.70
69223;BME280;56514;51.816;-0.026;2023-04-19T11:58:32;101971.34;;;21.38;40.72
69223;BME280;56514;51.816;-0.026;2023-04-19T12:01:44;101959.59;;;21.58;40.79
69223;BME280;56514;51.816;-0.026;2023-04-19T12:04:30;101958.56;;;21.78;40.23
69223;BME280;56514;51.816;-0.026;2023-04-19T12:07:15;101953.22;;;22.05;40.05
69223;BME280;56514;51.816;-0.026;2023-04-19T12:10:07;101961.44;;;22.31;39.88
69223;BME280;56514;51.816;-0.026;2023-04-19T12:12:53;101952.50;;;22.13;39.25
69223;BME280;56514;51.816;-0.026;2023-04-19T12:15:43;101946.41;;;22.11;39.98
69223;BME280;56514;51.816;-0.026;2023-04-19T12:18:44;101945.34;;;22.58;39.64
69223;BME280;56514;51.816;-0.026;2023-04-19T12:21:30;101936.47;;;23.18;38.49
69223;BME280;56514;51.816;-0.026;2023-04-19T12:24:16;101932.53;;;23.48;38.14
69223;BME280;56514;51.816;-0.026;2023-04-19T12:27:01;101929.41;;;23.17;37.67
69223;BME280;56514;51.816;-0.026;2023-04-19T12:29:47;101937.72;;;22.89;37.95
69223;BME280;56514;51.816;-0.026;2023-04-19T12:32:31;101933.34;;;22.88;38.16
69223;BME280;56514;51.816;-0.026;2023-04-19T12:35:16;101934.50;;;22.68;38.37
69223;BME280;56514;51.816;-0.026;2023-04-19T12:38:02;101947.03;;;22.32;38.52
69223;BME280;56514;51.816;-0.026;2023-04-19T12:40:47;101941.72;;;21.86;39.07
69223;BME280;56514;51.816;-0.026;2023-04-19T12:43:32;101936.38;;;21.76;39.48
69223;BME280;56514;51.816;-0.026;2023-04-19T12:46:17;101939.03;;;21.86;39.29
69223;BME280;56514;51.816;-0.026;2023-04-19T12:49:02;101935.91;;;22.17;38.97
69223;BME280;56514;51.816;-0.026;2023-04-19T12:51:46;101943.94;;;22.44;38.59
69223;BME280;56514;51.816;-0.026;2023-04-19T12:54:31;101934.34;;;22.24;38.22
69223;BME280;56514;51.816;-0.026;2023-04-19T12:57:16;101934.31;;;21.97;38.77
69223;BME280;56514;51.816;-0.026;2023-04-19T13:00:01;101930.56;;;21.81;39.59
69223;BME280;56514;51.816;-0.026;2023-04-19T13:02:46;101933.31;;;22.25;39.81
69223;BME280;56514;51.816;-0.026;2023-04-19T13:05:52;101932.16;;;23.68;38.02
69223;BME280;56514;51.816;-0.026;2023-04-19T13:08:57;101927.78;;;24.43;36.00
69223;BME280;56514;51.816;-0.026;2023-04-19T13:12:06;101917.66;;;24.37;35.78
69223;BME280;56514;51.816;-0.026;2023-04-19T13:15:12;101920.16;;;24.96;34.87
69223;BME280;56514;51.816;-0.026;2023-04-19T13:18:18;101914.56;;;27.14;32.78
69223;BME280;56514;51.816;-0.026;2023-04-19T13:21:28;101906.47;;;28.81;28.36
69223;BME280;56514;51.816;-0.026;2023-04-19T13:24:34;101908.38;;;29.57;27.32
69223;BME280;56514;51.816;-0.026;2023-04-19T13:27:44;101901.44;;;30.83;26.63
69223;BME280;56514;51.816;-0.026;2023-04-19T13:30:54;101896.19;;;32.36;24.33
69223;BME280;56514;51.816;-0.026;2023-04-19T13:34:04;101899.13;;;32.66;23.54
69223;BME280;56514;51.816;-0.026;2023-04-19T13:37:14;101897.31;;;32.91;22.87
69223;BME280;56514;51.816;-0.026;2023-04-19T13:40:22;101885.03;;;32.38;22.39
69223;BME280;56514;51.816;-0.026;2023-04-19T13:43:32;101887.75;;;32.31;22.16
69223;BME280;56514;51.816;-0.026;2023-04-19T13:46:40;101892.38;;;31.73;22.47
69223;BME280;56514;51.816;-0.026;2023-04-19T13:49:50;101889.91;;;31.52;21.96
69223;BME280;56514;51.816;-0.026;2023-04-19T13:52:59;101875.13;;;31.79;21.59
69223;BME280;56514;51.816;-0.026;2023-04-19T13:56:09;101889.28;;;31.57;21.80
69223;BME280;56514;51.816;-0.026;2023-04-19T13:59:19;101872.81;;;31.89;21.36
69223;BME280;56514;51.816;-0.026;2023-04-19T14:02:07;101873.94;;;32.64;20.42
69223;BME280;56514;51.816;-0.026;2023-04-19T14:04:51;101872.50;;;33.59;20.47
69223;BME280;56514;51.816;-0.026;2023-04-19T14:07:38;101877.88;;;34.20;18.26
69223;BME280;56514;51.816;-0.026;2023-04-19T14:10:24;101873.75;;;34.29;18.41
69223;BME280;56514;51.816;-0.026;2023-04-19T14:13:09;101873.63;;;34.54;17.47
69223;BME280;56514;51.816;-0.026;2023-04-19T14:15:54;101872.22;;;34.92;17.50
69223;BME280;56514;51.816;-0.026;2023-04-19T14:18:39;101865.66;;;35.16;16.28
69223;BME280;56514;51.816;-0.026;2023-04-19T14:21:25;101867.84;;;35.37;15.92
69223;BME280;56514;51.816;-0.026;2023-04-19T14:24:10;101871.53;;;35.43;16.11
69223;BME280;56514;51.816;-0.026;2023-04-19T14:26:54;101866.13;;;35.71;16.36
69223;BME280;56514;51.816;-0.026;2023-04-19T14:29:40;101866.47;;;35.98;15.41
69223;BME280;56514;51.816;-0.026;2023-04-19T14:32:25;101860.25;;;36.02;15.17
69223;BME280;56514;51.816;-0.026;2023-04-19T14:35:10;101856.53;;;36.36;15.03
69223;BME280;56514;51.816;-0.026;2023-04-19T14:37:56;101861.38;;;36.46;14.26
69223;BME280;56514;51.816;-0.026;2023-04-19T14:40:41;101859.38;;;36.41;15.04
69223;BME280;56514;51.816;-0.026;2023-04-19T14:43:26;101859.91;;;36.71;15.36
69223;BME280;56514;51.816;-0.026;2023-04-19T14:46:10;101855.13;;;36.95;14.33
69223;BME280;56514;51.816;-0.026;2023-04-19T14:48:55;101858.03;;;36.88;14.36
69223;BME280;56514;51.816;-0.026;2023-04-19T14:51:42;101856.38;;;37.04;14.12
69223;BME280;56514;51.816;-0.026;2023-04-19T14:54:28;101853.47;;;37.27;13.56
69223;BME280;56514;51.816;-0.026;2023-04-19T14:57:13;101856.22;;;37.27;13.55
69223;BME280;56514;51.816;-0.026;2023-04-19T14:59:58;101851.88;;;37.69;13.17
69223;BME280;56514;51.816;-0.026;2023-04-19T15:03:04;101859.63;;;37.94;12.42
69223;BME280;56514;51.816;-0.026;2023-04-19T15:06:11;101866.09;;;38.04;12.38
69223;BME280;56514;51.816;-0.026;2023-04-19T15:09:19;101866.53;;;38.18;12.43
69223;BME280;56514;51.816;-0.026;2023-04-19T15:12:25;101845.75;;;38.32;11.35